Time;durP1;ratioP1;P1;durP2;ratioP2;P2;SDS_P1;SDS_P2;PMS_P1;PMS_P2;Temp;Humidity;BMP_temperature;BMP_pressure;BME280_temperature;BME280_humidity;BME280_pressure;Samples;Min_cycle;Max_cycle;Signal;HPM_P1;HPM_P2
2023/01/20 00:01:47;;;;;;;9.18;6.43;;;;;;;1.71;84.14;100639.28;6091102;23;20018;-69
2023/01/20 00:04:13;;;;;;;11.48;6.25;;;;;;;1.72;84.16;100638.44;6090856;23;20015;-69
2023/01/20 00:06:39;;;;;;;12.52;6.38;;;;;;;1.73;84.47;100643.59;6089846;23;20489;-69
2023/01/20 00:09:05;;;;;;;11.23;5.65;;;;;;;1.75;84.46;100646.16;6088359;23;20033;-69
2023/01/20 00:11:31;;;;;;;12.38;6.75;;;;;;;1.72;84.59;100641.84;6089260;23;20450;-69
2023/01/20 00:13:59;;;;;;;10.40;6.15;;;;;;;1.68;84.91;100644.31;6088394;23;20048;-69
2023/01/20 00:16:25;;;;;;;13.45;5.97;;;;;;;1.62;84.95;100646.69;6089811;23;20061;-69
2023/01/20 00:18:50;;;;;;;9.73;5.93;;;;;;;1.56;85.13;100656.72;6090077;23;20022;-69
2023/01/20 00:21:17;;;;;;;8.25;5.45;;;;;;;1.48;85.26;100653.97;6089617;23;20029;-71
2023/01/20 00:23:43;;;;;;;10.82;6.53;;;;;;;1.42;85.33;100661.44;6089387;23;20676;-70
2023/01/20 00:26:11;;;;;;;10.35;5.47;;;;;;;1.37;85.33;100657.91;6089309;23;20026;-69
2023/01/20 00:28:36;;;;;;;9.65;6.10;;;;;;;1.33;85.93;100656.09;6090181;23;20014;-69
2023/01/20 00:31:15;;;;;;;11.20;6.55;;;;;;;1.30;85.85;100656.88;6091839;23;20007;-69
2023/01/20 00:33:41;;;;;;;11.48;5.90;;;;;;;1.24;86.10;100660.97;6091304;23;20019;-69
2023/01/20 00:36:07;;;;;;;10.75;7.03;;;;;;;1.16;86.22;100662.44;6090643;23;20022;-69
2023/01/20 00:38:33;;;;;;;11.38;6.70;;;;;;;1.07;86.77;100667.25;6090693;23;20022;-70
2023/01/20 00:40:58;;;;;;;15.30;6.60;;;;;;;1.01;86.88;100674.72;6089709;23;20025;-69
2023/01/20 00:43:24;;;;;;;9.70;6.88;;;;;;;0.99;86.85;100667.06;6085830;23;20014;-69
2023/01/20 00:45:49;;;;;;;8.23;6.05;;;;;;;0.93;86.78;100673.66;6087453;23;20507;-70
2023/01/20 00:48:15;;;;;;;11.80;7.47;;;;;;;0.82;87.55;100680.13;6089337;23;20049;-70
2023/01/20 00:50:41;;;;;;;14.98;7.28;;;;;;;0.71;88.00;100680.66;6089439;23;20073;-70
2023/01/20 00:53:06;;;;;;;10.52;6.35;;;;;;;0.66;88.49;100688.97;6090040;23;20019;-70
2023/01/20 00:55:32;;;;;;;11.70;5.75;;;;;;;0.62;88.64;100688.00;6089349;23;20286;-69
2023/01/20 00:57:57;;;;;;;8.95;6.05;;;;;;;0.64;88.79;100691.50;6090712;23;20323;-70
2023/01/20 01:00:22;;;;;;;14.32;6.97;;;;;;;0.63;88.68;100692.28;6090751;23;20029;-69
2023/01/20 01:02:48;;;;;;;12.70;6.45;;;;;;;0.58;88.81;100687.91;6089767;23;20370;-70
2023/01/20 01:05:13;;;;;;;11.88;7.57;;;;;;;0.53;88.71;100692.81;6089798;23;20116;-70
2023/01/20 01:07:39;;;;;;;14.52;7.28;;;;;;;0.49;89.13;100695.25;6090099;23;20022;-70
2023/01/20 01:10:05;;;;;;;8.27;5.35;;;;;;;0.47;89.20;100712.97;6089836;23;20214;-70
2023/01/20 01:12:30;;;;;;;12.77;6.68;;;;;;;0.48;89.27;100713.84;6087719;23;20027;-70
2023/01/20 01:14:55;;;;;;;12.50;6.45;;;;;;;0.50;89.39;100715.63;6087435;23;20379;-70
2023/01/20 01:17:22;;;;;;;12.88;6.72;;;;;;;0.53;89.41;100717.38;6088567;23;20592;-69
2023/01/20 01:19:50;;;;;;;10.02;6.70;;;;;;;0.54;89.45;100719.13;6089224;23;20019;-69
2023/01/20 01:22:15;;;;;;;9.63;5.72;;;;;;;0.56;89.19;100717.47;6087503;23;20002;-70
2023/01/20 01:24:43;;;;;;;12.35;6.57;;;;;;;0.59;89.54;100720.13;6088341;23;20029;-70
2023/01/20 01:27:08;;;;;;;10.00;6.70;;;;;;;0.60;89.10;100716.75;6090472;23;20088;-70
2023/01/20 01:29:34;;;;;;;9.93;6.30;;;;;;;0.57;89.08;100721.75;6090455;23;20505;-70
2023/01/20 01:31:59;;;;;;;10.18;6.38;;;;;;;0.49;89.34;100729.16;6090272;23;20018;-69
2023/01/20 01:34:25;;;;;;;9.68;6.63;;;;;;;0.37;89.47;100726.22;6091541;23;20036;-69
2023/01/20 01:36:50;;;;;;;10.75;6.72;;;;;;;0.26;89.52;100730.13;6090532;23;20026;-70
2023/01/20 01:39:16;;;;;;;13.02;6.72;;;;;;;0.18;89.89;100740.03;6090223;23;20026;-70
2023/01/20 01:41:41;;;;;;;11.52;6.72;;;;;;;0.08;90.16;100732.06;6090503;23;20460;-70
2023/01/20 01:44:12;;;;;;;12.88;6.75;;;;;;;-0.02;90.43;100735.97;6088085;23;20029;-70
2023/01/20 01:46:39;;;;;;;12.23;6.68;;;;;;;-0.10;90.38;100734.00;6089185;23;20033;-70
2023/01/20 01:49:25;;;;;;;14.88;6.75;;;;;;;-0.21;91.45;100733.59;6090023;23;20065;-69
2023/01/20 01:52:07;;;;;;;10.10;5.75;;;;;;;-0.28;91.52;100740.97;6090556;23;20030;-69
2023/01/20 01:54:37;;;;;;;11.48;6.82;;;;;;;-0.36;91.52;100744.94;6091259;23;20103;-70
2023/01/20 01:57:05;;;;;;;9.77;5.82;;;;;;;-0.42;91.80;100751.50;6091375;23;20077;-69
2023/01/20 01:59:30;;;;;;;11.38;7.43;;;;;;;-0.41;92.34;100755.78;6091726;23;20030;-70
2023/01/20 02:01:56;;;;;;;12.82;6.13;;;;;;;-0.32;92.62;100747.63;6090640;23;20462;-70
2023/01/20 02:04:24;;;;;;;11.40;6.88;;;;;;;-0.22;93.19;100747.16;6091562;23;20477;-70
2023/01/20 02:06:53;;;;;;;12.63;6.60;;;;;;;-0.15;92.83;100750.72;6089453;23;20034;-69
2023/01/20 02:09:19;;;;;;;11.07;6.30;;;;;;;-0.15;92.14;100753.28;6088380;23;20014;-70
2023/01/20 02:11:50;;;;;;;12.48;7.00;;;;;;;-0.18;92.22;100750.63;6089244;23;20106;-69
2023/01/20 02:14:28;;;;;;;15.55;7.80;;;;;;;-0.22;92.51;100751.34;6090013;23;20101;-70
2023/01/20 02:16:59;;;;;;;13.82;6.78;;;;;;;-0.28;92.12;100756.22;6088416;23;20014;-69
2023/01/20 02:19:33;;;;;;;12.52;6.88;;;;;;;-0.36;92.55;100763.56;6090047;23;20003;-69
2023/01/20 02:22:15;;;;;;;9.88;6.57;;;;;;;-0.41;92.57;100763.41;6059759;23;20830;-69
2023/01/20 02:25:15;;;;;;;11.57;6.57;;;;;;;-0.36;92.78;100763.56;6034036;23;20050;-69
2023/01/20 02:27:53;;;;;;;13.73;7.00;;;;;;;-0.23;93.38;100763.19;6000440;23;20031;-69
2023/01/20 02:30:50;;;;;;;18.95;7.32;;;;;;;-0.13;93.68;100767.78;6079969;23;20517;-69
2023/01/20 02:33:26;;;;;;;11.63;6.95;;;;;;;-0.01;93.15;100767.34;6092399;23;20018;-69
2023/01/20 02:35:58;;;;;;;8.70;5.53;;;;;;;0.10;92.84;100774.50;6090962;23;20374;-69
2023/01/20 02:38:36;;;;;;;13.90;7.30;;;;;;;0.23;92.85;100780.00;6090371;23;20569;-69
2023/01/20 02:41:04;;;;;;;8.80;5.63;;;;;;;0.31;92.62;100781.09;6090181;23;20386;-69
2023/01/20 02:43:37;;;;;;;13.18;7.15;;;;;;;0.38;92.47;100775.41;6091032;23;20003;-69
2023/01/20 02:46:11;;;;;;;13.40;7.13;;;;;;;0.42;91.94;100780.63;6091464;23;20034;-71
2023/01/20 02:49:00;;;;;;;12.45;7.50;;;;;;;0.46;91.85;100784.13;6090380;23;20022;-69
2023/01/20 02:51:32;;;;;;;15.27;7.20;;;;;;;0.47;91.98;100784.16;6091554;23;20786;-69
2023/01/20 02:54:07;;;;;;;11.90;6.47;;;;;;;0.47;91.42;100789.25;6091587;23;20022;-69
2023/01/20 02:56:33;;;;;;;;;;;;;;;0.49;91.45;100789.31;6092063;23;20030;-69
2023/01/20 02:59:11;;;;;;;13.45;7.13;;;;;;;0.54;91.43;100787.78;6091775;23;19909;-69
2023/01/20 03:01:49;;;;;;;16.45;8.40;;;;;;;0.59;91.13;100789.66;6092375;23;21518;-69
2023/01/20 03:04:20;;;;;;;14.20;7.57;;;;;;;0.66;90.83;100795.81;6093171;23;20006;-69
2023/01/20 03:06:53;;;;;;;15.80;8.00;;;;;;;0.72;90.51;100796.00;6091785;23;20018;-69
2023/01/20 03:09:24;;;;;;;16.52;8.35;;;;;;;0.80;90.57;100799.63;6090578;23;20045;-69
2023/01/20 03:11:57;;;;;;;13.73;7.47;;;;;;;0.87;89.96;100795.59;6090366;23;20033;-69
2023/01/20 03:14:23;;;;;;;16.10;8.05;;;;;;;0.94;89.90;100800.06;6090229;23;20022;-69
2023/01/20 03:16:49;;;;;;;17.80;8.25;;;;;;;0.98;89.42;100797.66;6090396;23;20037;-69
2023/01/20 03:19:16;;;;;;;12.27;7.53;;;;;;;1.01;89.30;100800.28;6090544;23;20116;-69
2023/01/20 03:21:42;;;;;;;14.45;7.35;;;;;;;1.01;89.12;100801.97;6089563;23;20022;-69
2023/01/20 03:24:07;;;;;;;18.20;8.57;;;;;;;0.97;88.71;100802.72;6089051;23;20018;-69
2023/01/20 03:26:33;;;;;;;15.88;7.75;;;;;;;0.95;88.75;100806.88;6089576;23;20026;-69
2023/01/20 03:29:04;;;;;;;14.85;7.97;;;;;;;0.91;88.95;100799.97;6090904;23;20041;-69
2023/01/20 03:31:35;;;;;;;11.18;6.45;;;;;;;0.90;89.04;100805.88;6091760;23;20006;-69
2023/01/20 03:34:05;;;;;;;12.48;7.10;;;;;;;0.88;89.14;100812.59;6090677;23;20092;-69
2023/01/20 03:36:32;;;;;;;13.43;7.32;;;;;;;0.87;88.89;100816.81;6090912;23;20018;-69
2023/01/20 03:38:58;;;;;;;15.50;7.10;;;;;;;0.86;89.00;100811.66;6089249;23;20028;-71
2023/01/20 03:41:55;;;;;;;10.52;6.45;;;;;;;0.82;88.93;100808.19;6088948;23;20085;-69
2023/01/20 03:44:57;;;;;;;9.77;6.72;;;;;;;0.74;89.10;100812.16;6091240;23;20183;-69
2023/01/20 03:47:39;;;;;;;14.68;7.97;;;;;;;0.64;88.97;100811.03;6089370;23;20391;-69
2023/01/20 03:50:29;;;;;;;15.10;6.88;;;;;;;0.54;89.31;100809.00;6089979;23;20026;-69
2023/01/20 03:53:01;;;;;;;13.02;7.47;;;;;;;0.45;89.48;100825.63;6090143;23;20505;-69
2023/01/20 03:55:50;;;;;;;15.20;7.55;;;;;;;0.36;89.97;100820.22;6090907;23;20006;-69
2023/01/20 03:58:26;;;;;;;16.73;8.00;;;;;;;0.32;90.20;100833.66;6090541;23;20033;-69
2023/01/20 04:00:52;;;;;;;16.48;8.30;;;;;;;0.29;90.49;100831.03;6092209;23;20034;-69
2023/01/20 04:03:22;;;;;;;14.85;7.68;;;;;;;0.30;90.59;100835.28;6091302;23;20604;-69
2023/01/20 04:05:49;;;;;;;15.95;8.27;;;;;;;0.33;90.66;100836.25;6092569;23;20014;-69
2023/01/20 04:08:17;;;;;;;18.23;7.93;;;;;;;0.37;90.24;100830.47;6082250;23;20376;-69
2023/01/20 04:10:45;;;;;;;15.30;7.57;;;;;;;0.44;90.25;100834.91;6090869;23;20549;-69
2023/01/20 04:13:11;;;;;;;12.18;6.82;;;;;;;0.49;89.76;100837.63;6090644;23;20038;-69
2023/01/20 04:15:43;;;;;;;12.38;6.93;;;;;;;0.51;89.60;100830.91;6091331;23;20489;-69
2023/01/20 04:18:16;;;;;;;16.85;7.68;;;;;;;0.53;89.27;100834.34;6092404;23;20162;-69
2023/01/20 04:20:45;;;;;;;16.35;8.18;;;;;;;0.52;89.06;100828.44;6092373;23;20587;-69
2023/01/20 04:23:26;;;;;;;17.83;7.70;;;;;;;0.51;88.81;100833.44;6066030;23;20019;-69
2023/01/20 04:25:51;;;;;;;13.38;7.47;;;;;;;0.50;88.91;100840.22;6090589;23;20018;-69
2023/01/20 04:28:16;;;;;;;14.05;6.28;;;;;;;0.50;88.76;100845.28;6091306;23;20026;-69
2023/01/20 04:30:42;;;;;;;13.45;7.13;;;;;;;0.52;88.35;100851.31;6090740;23;20025;-69
2023/01/20 04:33:07;;;;;;;13.52;6.90;;;;;;;0.55;88.53;100838.69;6090939;23;20022;-69
2023/01/20 04:35:32;;;;;;;11.25;6.43;;;;;;;0.59;88.27;100844.72;6090939;23;20069;-69
2023/01/20 04:37:58;;;;;;;11.00;6.40;;;;;;;0.63;88.66;100844.91;6090966;23;20524;-69
2023/01/20 04:40:23;;;;;;;16.50;7.45;;;;;;;0.66;88.25;100839.91;6090138;23;20014;-69
2023/01/20 04:42:49;;;;;;;15.85;7.68;;;;;;;0.70;87.84;100851.06;6090569;23;20597;-69
2023/01/20 04:45:15;;;;;;;16.63;7.50;;;;;;;0.72;87.84;100840.09;6087549;23;20337;-69
2023/01/20 04:47:42;;;;;;;16.10;7.75;;;;;;;0.74;87.29;100841.00;6063676;23;20350;-69
2023/01/20 04:50:08;;;;;;;14.35;7.10;;;;;;;0.78;87.44;100846.19;6087989;23;20018;-69
2023/01/20 04:52:34;;;;;;;16.95;6.85;;;;;;;0.79;86.60;100843.72;6089744;23;20085;-69
2023/01/20 04:54:59;;;;;;;13.50;7.25;;;;;;;0.79;86.43;100848.81;6091076;23;20014;-68
2023/01/20 04:57:25;;;;;;;15.05;7.32;;;;;;;0.78;86.11;100852.16;6065220;23;20029;-69
2023/01/20 04:59:50;;;;;;;14.40;6.57;;;;;;;0.76;85.78;100848.72;6065475;23;20014;-69
2023/01/20 05:02:15;;;;;;;13.20;6.63;;;;;;;0.77;85.40;100864.84;6090944;23;20098;-69
2023/01/20 05:04:41;;;;;;;12.63;7.28;;;;;;;0.79;85.73;100858.97;6065201;23;20089;-69
2023/01/20 05:07:06;;;;;;;12.98;6.55;;;;;;;0.80;85.72;100862.38;6089091;23;20456;-69
2023/01/20 05:09:32;;;;;;;11.60;6.85;;;;;;;0.80;85.79;100865.78;6090016;23;20018;-69
2023/01/20 05:11:57;;;;;;;12.23;6.28;;;;;;;0.81;85.83;100867.53;6065293;23;20343;-69
2023/01/20 05:14:23;;;;;;;11.68;6.63;;;;;;;0.81;85.73;100862.44;6091241;23;20022;-69
2023/01/20 05:16:48;;;;;;;14.10;6.15;;;;;;;0.84;85.54;100864.19;6090483;23;20022;-69
2023/01/20 05:19:14;;;;;;;9.85;6.25;;;;;;;0.83;85.68;100858.25;6093103;23;20608;-69
2023/01/20 05:21:41;;;;;;;12.23;7.07;;;;;;;0.83;85.28;100860.78;6091644;23;20025;-69
2023/01/20 05:24:07;;;;;;;12.63;6.38;;;;;;;0.83;85.01;100865.00;6091590;23;20450;-69
2023/01/20 05:26:32;;;;;;;13.45;6.95;;;;;;;0.82;84.64;100861.63;6091115;23;20030;-69
2023/01/20 05:28:58;;;;;;;14.48;7.97;;;;;;;0.82;85.59;100870.94;6091882;23;20353;-69
2023/01/20 05:31:24;;;;;;;12.40;7.55;;;;;;;0.85;85.51;100873.56;6091615;23;20011;-70
2023/01/20 05:33:49;;;;;;;14.13;7.03;;;;;;;0.85;85.75;100877.00;6066101;23;20003;-69
2023/01/20 05:36:15;;;;;;;11.60;6.70;;;;;;;0.86;85.33;100871.06;6090166;23;20018;-70
2023/01/20 05:38:40;;;;;;;14.10;7.40;;;;;;;0.88;85.15;100878.75;6090661;23;20018;-69
2023/01/20 05:41:08;;;;;;;16.63;8.35;;;;;;;0.87;85.26;100880.44;6091298;23;20018;-68
2023/01/20 05:43:33;;;;;;;10.43;6.45;;;;;;;0.88;85.44;100888.94;6092010;23;20010;-69
2023/01/20 05:45:59;;;;;;;14.27;6.97;;;;;;;0.88;85.28;100889.81;6094755;23;20041;-69
2023/01/20 05:48:25;;;;;;;16.00;7.03;;;;;;;0.88;85.27;100892.34;6099071;23;20022;-69
2023/01/20 05:50:50;;;;;;;11.27;5.93;;;;;;;0.89;85.38;100898.28;6096846;23;20014;-69
2023/01/20 05:53:16;;;;;;;13.02;6.38;;;;;;;0.90;85.21;100892.38;6095143;23;20041;-69
2023/01/20 05:55:42;;;;;;;11.43;6.35;;;;;;;0.92;85.17;100899.25;6065066;23;20015;-69
2023/01/20 05:58:08;;;;;;;14.68;6.93;;;;;;;0.93;84.99;100898.44;6091576;23;20018;-69
2023/01/20 06:00:33;;;;;;;13.60;6.53;;;;;;;0.96;85.07;100887.50;6090833;23;20045;-69
2023/01/20 06:02:59;;;;;;;13.93;7.00;;;;;;;0.97;84.63;100905.38;6090111;23;20460;-70
2023/01/20 06:05:25;;;;;;;11.93;6.80;;;;;;;1.00;84.93;100900.38;6056780;23;20405;-69
2023/01/20 06:07:50;;;;;;;13.45;7.10;;;;;;;1.02;84.87;100900.41;6094076;23;20014;-69
2023/01/20 06:10:16;;;;;;;21.80;8.82;;;;;;;1.05;84.16;100903.06;6094387;23;20093;-70
2023/01/20 06:12:42;;;;;;;12.27;6.10;;;;;;;1.05;83.86;100898.84;6093854;23;20026;-70
2023/01/20 06:15:08;;;;;;;12.57;6.93;;;;;;;1.08;83.85;100898.06;6095463;23;20022;-70
2023/01/20 06:17:34;;;;;;;13.43;7.30;;;;;;;1.09;84.12;100910.81;6096101;23;20049;-70
2023/01/20 06:19:59;;;;;;;11.85;7.00;;;;;;;1.10;83.83;100916.78;6096897;23;20041;-70
2023/01/20 06:22:25;;;;;;;10.65;5.97;;;;;;;1.10;83.85;100909.16;6092594;23;20116;-70
2023/01/20 06:24:51;;;;;;;15.43;7.65;;;;;;;1.10;83.05;100904.94;6093511;23;20013;-70
2023/01/20 06:27:17;;;;;;;11.30;6.25;;;;;;;1.09;83.64;100910.81;6093430;23;20036;-70
2023/01/20 06:29:43;;;;;;;16.65;7.40;;;;;;;1.08;83.74;100911.66;6095937;23;20073;-70
2023/01/20 06:32:09;;;;;;;12.27;6.35;;;;;;;1.11;83.73;100921.94;6099656;23;20019;-69
2023/01/20 06:34:35;;;;;;;13.80;7.05;;;;;;;1.13;83.65;100916.88;6096763;23;20010;-69
2023/01/20 06:37:01;;;;;;;13.65;7.57;;;;;;;1.16;83.03;100919.53;6099847;23;20434;-76
2023/01/20 06:39:26;;;;;;;11.48;6.55;;;;;;;1.19;82.67;100922.16;6095464;23;20033;-76
2023/01/20 06:41:52;;;;;;;14.40;6.78;;;;;;;1.21;82.85;100923.94;6095172;23;20018;-76
2023/01/20 06:44:17;;;;;;;15.50;7.53;;;;;;;1.20;82.17;100924.78;6093759;23;20022;-71
2023/01/20 06:46:43;;;;;;;14.95;7.53;;;;;;;1.20;83.08;100929.00;6092007;23;20022;-70
2023/01/20 06:49:08;;;;;;;13.68;6.95;;;;;;;1.20;82.82;100934.97;6091969;23;20431;-69
2023/01/20 06:51:34;;;;;;;12.50;6.28;;;;;;;1.19;82.57;100940.00;6092370;23;20029;-69
2023/01/20 06:53:59;;;;;;;14.95;7.75;;;;;;;1.19;82.62;100943.41;6092518;23;20340;-70
2023/01/20 06:56:25;;;;;;;12.77;6.38;;;;;;;1.16;82.71;100938.22;6092099;23;20362;-70
2023/01/20 06:58:51;;;;;;;10.95;6.25;;;;;;;1.15;82.77;100950.91;6092315;23;20015;-70
2023/01/20 07:01:25;;;;;;;15.68;6.90;;;;;;;1.14;82.59;100955.13;6092877;23;20065;-70
2023/01/20 07:03:50;;;;;;;14.90;7.03;;;;;;;1.14;82.46;100947.50;6093198;23;20025;-70
2023/01/20 07:06:20;;;;;;;14.45;6.75;;;;;;;1.14;82.39;100949.16;6092205;23;20018;-69
2023/01/20 07:08:46;;;;;;;15.20;5.97;;;;;;;1.14;82.18;100950.03;6091555;23;20415;-70
2023/01/20 07:11:12;;;;;;;13.10;7.40;;;;;;;1.15;82.44;100954.28;6091367;23;20026;-70
2023/01/20 07:13:37;;;;;;;14.63;7.25;;;;;;;1.17;82.05;100951.81;6091038;23;20105;-70
2023/01/20 07:16:03;;;;;;;13.23;7.05;;;;;;;1.18;81.95;100962.03;6091105;23;20011;-70
2023/01/20 07:18:28;;;;;;;14.18;7.28;;;;;;;1.20;82.35;100959.56;6092022;23;20023;-70
2023/01/20 07:20:54;;;;;;;12.00;6.90;;;;;;;1.22;81.86;100963.00;6092543;23;20018;-71
2023/01/20 07:23:20;;;;;;;16.02;7.28;;;;;;;1.22;81.39;100966.41;6096596;23;20018;-71
2023/01/20 07:25:46;;;;;;;13.48;6.07;;;;;;;1.23;81.61;100964.75;6070024;23;20028;-71
2023/01/20 07:28:11;;;;;;;13.55;6.53;;;;;;;1.25;81.67;100968.19;6093003;23;20021;-71
2023/01/20 07:30:36;;;;;;;13.13;6.00;;;;;;;1.24;81.96;100974.13;6066287;23;20022;-71
2023/01/20 07:33:04;;;;;;;13.93;6.30;;;;;;;1.24;82.28;100984.31;6091937;23;20022;-71
2023/01/20 07:35:30;;;;;;;12.23;6.28;;;;;;;1.25;81.21;100980.91;6092627;23;20026;-71
2023/01/20 07:37:55;;;;;;;10.48;6.13;;;;;;;1.26;81.43;100981.00;6092342;23;20018;-71
2023/01/20 07:40:20;;;;;;;11.82;6.00;;;;;;;1.29;81.50;100982.75;6093122;23;20010;-72
2023/01/20 07:42:46;;;;;;;14.13;6.53;;;;;;;1.33;82.26;100991.38;6072658;23;20007;-71
2023/01/20 07:45:11;;;;;;;11.45;6.93;;;;;;;1.35;81.99;100990.59;6096920;23;20485;-77
2023/01/20 07:47:37;;;;;;;12.32;6.45;;;;;;;1.38;81.39;100992.38;6087171;23;20019;-78
2023/01/20 07:50:03;;;;;;;11.25;6.00;;;;;;;1.42;81.26;100992.50;6065199;23;20483;-77
2023/01/20 07:52:28;;;;;;;11.32;6.82;;;;;;;1.46;81.08;100993.47;6065929;23;20019;-75
2023/01/20 07:54:54;;;;;;;14.68;7.25;;;;;;;1.50;81.47;101005.50;6092106;23;20002;-78
2023/01/20 07:57:19;;;;;;;17.80;8.02;;;;;;;1.52;81.82;101002.19;6067800;23;20014;-77
2023/01/20 07:59:44;;;;;;;11.18;6.40;;;;;;;1.55;81.17;101002.28;6092032;23;20014;-77
2023/01/20 08:02:10;;;;;;;13.98;7.20;;;;;;;1.58;80.82;101010.00;6093671;23;20018;-78
2023/01/20 08:04:35;;;;;;;13.13;6.97;;;;;;;1.61;81.18;101014.34;6093277;23;20022;-77
2023/01/20 08:07:01;;;;;;;11.93;7.05;;;;;;;1.65;81.11;101008.53;6092221;23;20018;-77
2023/01/20 08:09:26;;;;;;;13.50;7.10;;;;;;;1.68;81.30;101014.59;6091745;23;20007;-77
2023/01/20 08:11:52;;;;;;;14.55;8.13;;;;;;;1.68;81.29;101023.91;6093464;23;20007;-78
2023/01/20 08:14:17;;;;;;;14.25;6.82;;;;;;;1.65;81.28;101021.28;6090300;23;20050;-77
2023/01/20 08:16:43;;;;;;;11.50;6.47;;;;;;;1.63;81.08;101025.44;6091043;23;20022;-77
2023/01/20 08:19:08;;;;;;;17.25;6.82;;;;;;;1.64;81.00;101025.50;6091705;23;20454;-77
2023/01/20 08:21:33;;;;;;;12.93;6.38;;;;;;;1.70;80.87;101040.09;6092128;23;20062;-77
2023/01/20 08:24:03;;;;;;;11.55;6.63;;;;;;;1.74;80.63;101042.81;6093322;23;20486;-78
2023/01/20 08:26:29;;;;;;;13.43;5.72;;;;;;;1.79;79.78;101025.97;6092114;23;20081;-77
2023/01/20 08:29:00;;;;;;;13.10;6.97;;;;;;;1.85;78.66;101030.38;6066092;23;20468;-77
2023/01/20 08:31:25;;;;;;;11.80;6.38;;;;;;;1.85;78.40;101031.25;6093026;23;20077;-77
2023/01/20 08:33:53;;;;;;;13.80;6.95;;;;;;;1.89;79.66;101041.53;6091610;23;20018;-77
2023/01/20 08:36:25;;;;;;;11.07;6.63;;;;;;;1.92;78.73;101041.63;6091446;23;20034;-77
2023/01/20 08:38:50;;;;;;;13.63;6.18;;;;;;;1.97;79.13;101043.50;6084061;23;20561;-78
2023/01/20 08:41:22;;;;;;;12.98;6.40;;;;;;;1.95;78.45;101037.50;6089720;23;20026;-77
2023/01/20 08:43:48;;;;;;;13.48;6.65;;;;;;;1.94;77.39;101034.91;6091913;23;20022;-77
2023/01/20 08:46:15;;;;;;;12.93;6.90;;;;;;;1.90;77.74;101043.25;6090571;23;20462;-76
2023/01/20 08:48:42;;;;;;;12.48;5.85;;;;;;;1.80;78.04;101044.69;6089200;23;20233;-77
2023/01/20 08:51:24;;;;;;;13.35;6.05;;;;;;;1.76;78.09;101050.50;6092136;23;20006;-78
2023/01/20 08:53:49;;;;;;;15.65;6.88;;;;;;;1.74;78.75;101053.00;6092062;23;20014;-78
2023/01/20 08:56:16;;;;;;;15.30;7.30;;;;;;;1.75;78.36;101054.72;6094164;23;20046;-76
2023/01/20 08:58:42;;;;;;;11.25;6.07;;;;;;;1.80;78.26;101047.22;6067731;23;20022;-76
2023/01/20 09:01:12;;;;;;;12.43;5.80;;;;;;;1.79;78.57;101045.47;6092500;23;20018;-78
2023/01/20 09:03:38;;;;;;;13.70;6.10;;;;;;;1.84;78.43;101046.47;6091928;23;20655;-77
2023/01/20 09:06:05;;;;;;;15.07;6.70;;;;;;;1.85;78.21;101038.03;6091533;23;20114;-75
2023/01/20 09:08:31;;;;;;;10.82;6.35;;;;;;;1.92;78.36;101051.84;6090047;23;20018;-74
2023/01/20 09:11:09;;;;;;;13.10;6.60;;;;;;;2.00;78.17;101051.25;6089995;23;20036;-75
2023/01/20 09:13:34;;;;;;;12.10;7.05;;;;;;;2.11;78.14;101054.97;6091801;23;20406;-76
2023/01/20 09:16:00;;;;;;;12.07;6.70;;;;;;;2.10;76.98;101044.75;6090678;23;20034;-75
2023/01/20 09:18:26;;;;;;;11.45;6.10;;;;;;;2.13;77.12;101045.69;6091024;23;20006;-76
2023/01/20 09:20:51;;;;;;;15.27;7.45;;;;;;;2.19;76.68;101045.84;6091692;23;20329;-77
2023/01/20 09:23:16;;;;;;;13.50;6.18;;;;;;;2.23;76.39;101036.63;6091378;23;20014;-76
2023/01/20 09:25:42;;;;;;;13.38;6.15;;;;;;;2.31;76.91;101040.28;6090455;23;20030;-76
2023/01/20 09:28:07;;;;;;;11.88;6.55;;;;;;;2.39;76.74;101047.34;6090864;23;20018;-76
2023/01/20 09:30:33;;;;;;;11.52;6.88;;;;;;;2.43;75.87;101038.06;6091465;23;20758;-76
2023/01/20 09:32:58;;;;;;;9.50;5.90;;;;;;;2.51;76.14;101026.41;6091318;23;20015;-75
2023/01/20 09:35:25;;;;;;;17.63;6.78;;;;;;;2.60;75.52;101036.00;6065532;23;20065;-75
2023/01/20 09:43:55;;;;;;;13.88;6.65;;;;;;;2.70;75.25;101032.84;6092796;23;20030;-77
2023/01/20 09:46:39;;;;;;;12.77;7.00;;;;;;;2.77;75.84;101038.19;6092042;23;20018;-76
2023/01/20 09:55:45;;;;;;;18.73;7.85;;;;;;;3.18;74.85;101026.50;6092604;23;20025;-76
2023/01/20 09:58:43;;;;;;;17.35;7.55;;;;;;;3.21;73.50;101018.03;6064932;23;20451;-75
2023/01/20 10:01:17;;;;;;;15.95;7.85;;;;;;;3.30;74.51;101025.94;6092810;23;20044;-76
2023/01/20 10:03:59;;;;;;;15.98;8.70;;;;;;;3.39;73.49;101008.28;6092794;23;20098;-76
2023/01/20 10:06:32;;;;;;;13.98;7.55;;;;;;;3.50;73.18;101015.38;6092601;23;20388;-75
2023/01/20 10:09:36;;;;;;;14.38;8.18;;;;;;;3.59;73.06;101009.63;6093068;23;20109;-77
2023/01/20 10:12:10;;;;;;;17.33;8.90;;;;;;;3.66;73.94;101021.72;6092258;23;20054;-77
2023/01/20 10:15:12;;;;;;;18.10;8.63;;;;;;;3.72;73.12;101015.88;6066450;23;20097;-76
2023/01/20 10:17:59;;;;;;;16.50;7.97;;;;;;;3.77;72.90;101016.84;6090672;23;20510;-76
2023/01/20 10:20:45;;;;;;;17.92;8.55;;;;;;;3.76;73.15;101023.69;6091598;23;20086;-76
2023/01/20 10:23:41;;;;;;;17.52;8.77;;;;;;;3.78;72.78;101014.34;6090971;23;20022;-78
2023/01/20 10:26:15;;;;;;;17.25;7.80;;;;;;;3.84;72.15;101005.94;6091604;23;20018;-76
2023/01/20 10:28:49;;;;;;;16.20;8.32;;;;;;;3.85;73.28;101020.47;6092019;23;20017;-76
2023/01/20 10:31:22;;;;;;;17.52;8.45;;;;;;;3.88;72.59;101025.66;6066065;23;20394;-76
2023/01/20 10:33:49;;;;;;;18.75;8.63;;;;;;;3.89;73.69;101032.47;6092354;23;20081;-76
2023/01/20 10:36:21;;;;;;;19.90;10.90;;;;;;;3.97;74.00;101038.63;6092488;23;20085;-73
2023/01/20 10:39:02;;;;;;;18.33;9.82;;;;;;;4.08;73.83;101032.06;6093746;23;19999;-75
2023/01/20 10:41:41;;;;;;;15.85;8.18;;;;;;;4.13;73.09;101019.34;6092188;23;20014;-76
2023/01/20 10:44:11;;;;;;;18.73;8.18;;;;;;;4.19;72.25;101015.25;6091656;23;20010;-76
2023/01/20 10:46:43;;;;;;;13.32;6.57;;;;;;;4.22;70.40;100974.38;6090660;23;20458;-76
2023/01/20 10:49:17;;;;;;;15.43;6.80;;;;;;;4.38;69.79;100962.75;6064283;23;20042;-78
2023/01/20 10:52:01;;;;;;;12.77;7.32;;;;;;;4.37;68.94;100943.97;6091623;23;20022;-76
2023/01/20 10:54:57;;;;;;;11.07;5.97;;;;;;;4.45;69.45;100944.09;6091638;23;20426;-76
2023/01/20 10:57:23;;;;;;;13.10;6.80;;;;;;;4.47;69.34;100962.94;6081784;23;20109;-75
2023/01/20 10:59:52;;;;;;;10.55;6.60;;;;;;;4.53;69.27;100963.06;6091381;23;20660;-77
2023/01/20 11:02:29;;;;;;;12.52;6.47;;;;;;;4.55;69.50;100951.13;6090696;23;20025;-77
2023/01/20 11:05:22;;;;;;;15.15;5.90;;;;;;;4.59;68.82;100929.91;6092110;23;20018;-78
2023/01/20 11:07:51;;;;;;;20.60;6.53;;;;;;;4.57;69.17;100957.13;6091456;23;20042;-78
2023/01/20 11:10:18;;;;;;;12.80;7.53;;;;;;;4.60;69.98;100973.41;6091143;23;20022;-79
2023/01/20 11:12:47;;;;;;;14.57;7.30;;;;;;;4.54;70.05;100967.31;6091454;23;20033;-77
2023/01/20 11:15:27;;;;;;;17.67;7.20;;;;;;;4.47;70.29;100973.16;6092382;23;20093;-77
2023/01/20 11:18:14;;;;;;;12.75;5.45;;;;;;;4.43;69.05;100956.88;6094095;23;20022;-77
2023/01/20 11:20:54;;;;;;;15.93;6.03;;;;;;;4.39;68.98;100955.09;6094086;23;20105;-77
2023/01/20 11:23:20;;;;;;;18.02;7.45;;;;;;;4.38;70.09;100963.63;6101018;23;20022;-76
2023/01/20 11:26:20;;;;;;;14.15;6.65;;;;;;;4.33;69.84;100972.03;6095563;23;20044;-77
2023/01/20 11:28:59;;;;;;;13.05;6.22;;;;;;;4.31;69.96;100969.44;6079848;23;20073;-76
2023/01/20 11:31:48;;;;;;;17.63;7.60;;;;;;;4.30;70.56;100987.34;6095177;23;20023;-77
2023/01/20 11:34:19;;;;;;;15.00;8.00;;;;;;;4.23;71.99;101008.50;6069178;23;20501;-77
2023/01/20 11:36:45;;;;;;;14.35;8.35;;;;;;;4.08;72.93;101020.13;6067666;23;20492;-77
2023/01/20 11:39:30;;;;;;;14.75;7.57;;;;;;;4.06;72.36;101016.66;6066561;23;20007;-76
2023/01/20 11:42:15;;;;;;;18.52;8.40;;;;;;;4.06;73.34;101031.16;6091543;23;20018;-77
2023/01/20 11:44:46;;;;;;;16.27;8.48;;;;;;;4.06;72.58;101015.81;6082490;23;20014;-76
2023/01/20 11:47:23;;;;;;;13.35;7.93;;;;;;;4.07;73.48;101023.53;6065768;23;20018;-71
2023/01/20 11:50:38;;;;;;;14.00;7.50;;;;;;;4.04;72.73;101015.78;6091741;23;20065;-76